Time;durP1;ratioP1;P1;durP2;ratioP2;P2;SDS_P1;SDS_P2;PMS_P1;PMS_P2;Temp;Humidity;BMP_temperature;BMP_pressure;BME280_temperature;BME280_humidity;BME280_pressure;Samples;Min_cycle;Max_cycle;Signal;HPM_P1;HPM_P2
2021/07/07 00:00:31;;;;;;;23.80;12.88;;;640.10;1817.60;;;;;;5112044;28;20358;-83
2021/07/07 00:02:57;;;;;;;22.20;11.40;;;615.30;1843.20;;;;;;5111761;28;20016;-84
2021/07/07 00:05:23;;;;;;;25.05;13.18;;;640.00;1817.60;;;;;;5111835;28;20028;-83
2021/07/07 00:07:49;;;;;;;21.40;11.98;;;615.20;1843.20;;;;;;5112495;28;20020;-80
2021/07/07 00:10:17;;;;;;;20.35;12.57;;;615.20;1843.20;;;;;;5126083;28;21028;-82
2021/07/07 00:12:45;;;;;;;20.58;13.25;;;615.20;1817.60;;;;;;5131192;28;20023;-83
2021/07/07 00:15:13;;;;;;;24.90;14.10;;;615.00;1843.20;;;;;;5119396;28;20396;-82
2021/07/07 00:17:39;;;;;;;19.23;12.98;;;615.00;1817.60;;;;;;5112065;28;20024;-81
2021/07/07 00:20:07;;;;;;;20.75;12.68;;;615.00;1817.60;;;;;;5102688;28;20036;-83
2021/07/07 00:22:33;;;;;;;18.58;12.65;;;615.00;1817.60;;;;;;5092408;28;20504;-82
2021/07/07 00:24:58;;;;;;;18.58;13.45;;;615.00;1817.60;;;;;;5091006;28;20024;-81
2021/07/07 00:27:24;;;;;;;18.73;12.52;;;614.80;1843.20;;;;;;5091278;28;20020;-82
2021/07/07 00:29:51;;;;;;;20.70;12.10;;;614.80;1843.20;;;;;;5091323;28;20636;-82
2021/07/07 00:32:18;;;;;;;20.52;14.27;;;614.90;1817.60;;;;;;5091162;28;20089;-81
2021/07/07 00:34:45;;;;;;;25.92;13.77;;;614.70;1843.20;;;;;;5096476;28;20028;-81
2021/07/07 00:37:11;;;;;;;18.50;12.40;;;614.60;1868.80;;;;;;5094793;28;20047;-82
2021/07/07 00:39:37;;;;;;;20.52;12.50;;;614.60;1868.80;;;;;;5095121;28;20032;-82
2021/07/07 00:42:03;;;;;;;19.95;13.43;;;614.70;1868.80;;;;;;5094872;28;20537;-83
2021/07/07 00:44:29;;;;;;;21.92;13.52;;;614.60;1868.80;;;;;;5095065;28;20055;-83
2021/07/07 00:46:54;;;;;;;22.92;13.27;;;614.40;1894.40;;;;;;5095557;28;20032;-82
2021/07/07 00:49:20;;;;;;;19.67;12.45;;;614.40;1868.80;;;;;;5111768;28;20024;-82
2021/07/07 00:51:47;;;;;;;22.77;13.15;;;614.40;1868.80;;;;;;5095087;28;20479;-81
2021/07/07 00:54:14;;;;;;;18.98;13.27;;;614.40;1894.40;;;;;;5094688;28;20493;-82
2021/07/07 00:56:41;;;;;;;24.00;14.18;;;614.40;1868.80;;;;;;5094976;28;20039;-82
2021/07/07 00:59:08;;;;;;;20.88;13.65;;;614.40;1894.40;;;;;;5094202;28;20028;-83
2021/07/07 01:01:35;;;;;;;21.23;12.70;;;589.70;1868.80;;;;;;5094880;28;20024;-83
2021/07/07 01:04:01;;;;;;;22.65;12.95;;;614.50;1868.80;;;;;;5094314;28;20019;-83
2021/07/07 01:06:27;;;;;;;24.80;13.38;;;614.50;1894.40;;;;;;5094633;28;20027;-83
2021/07/07 01:08:53;;;;;;;23.20;12.80;;;614.40;1894.40;;;;;;5095413;28;20020;-82
2021/07/07 01:11:18;;;;;;;21.17;13.30;;;614.60;1868.80;;;;;;5095173;28;20477;-82
2021/07/07 01:13:44;;;;;;;25.65;12.82;;;614.70;1868.80;;;;;;5094598;28;20362;-82
2021/07/07 01:16:10;;;;;;;19.52;13.95;;;614.90;1843.20;;;;;;5095404;28;20040;-83
2021/07/07 01:18:37;;;;;;;27.67;13.88;;;614.90;1843.20;;;;;;5094472;28;20039;-82
2021/07/07 01:21:04;;;;;;;27.63;13.63;;;615.00;1843.20;;;;;;5111660;28;20024;-82
2021/07/07 01:23:30;;;;;;;21.25;13.18;;;614.90;1843.20;;;;;;5115274;28;20024;-83
2021/07/07 01:25:56;;;;;;;21.90;13.38;;;614.80;1868.80;;;;;;5114396;28;20031;-82
2021/07/07 01:28:22;;;;;;;20.67;14.02;;;614.70;1868.80;;;;;;5114588;28;20019;-83
2021/07/07 01:30:48;;;;;;;21.17;13.05;;;614.60;1868.80;;;;;;5114388;28;20488;-83
2021/07/07 01:33:14;;;;;;;26.92;14.15;;;614.50;1868.80;;;;;;5114269;28;20038;-82
2021/07/07 01:35:40;;;;;;;18.52;13.18;;;614.40;1894.40;;;;;;5114072;27;20050;-83
2021/07/07 01:38:06;;;;;;;21.95;13.90;;;589.70;1894.40;;;;;;5115333;28;20091;-80
2021/07/07 01:40:32;;;;;;;23.58;13.73;;;589.70;1920.00;;;;;;5114399;28;20437;-82
2021/07/07 01:42:59;;;;;;;19.30;13.57;;;589.60;1920.00;;;;;;5113889;28;20469;-82
2021/07/07 01:45:25;;;;;;;20.23;13.15;;;589.60;1920.00;;;;;;5113722;28;20103;-82
2021/07/07 01:47:53;;;;;;;18.25;13.35;;;589.50;1920.00;;;;;;5115035;28;20030;-83
2021/07/07 01:50:20;;;;;;;26.67;15.02;;;589.50;1920.00;;;;;;5114337;28;20024;-83
2021/07/07 01:52:46;;;;;;;24.00;14.98;;;589.60;1920.00;;;;;;5113830;28;20028;-82
2021/07/07 01:55:15;;;;;;;25.85;14.82;;;589.40;1920.00;;;;;;5113919;28;20035;-83
2021/07/07 01:57:44;;;;;;;28.95;15.95;;;589.30;1945.60;;;;;;5113807;28;20126;-82
2021/07/07 02:00:17;;;;;;;29.45;15.20;;;589.40;1920.00;;;;;;5113839;28;20036;-83
2021/07/07 02:02:44;;;;;;;25.67;14.73;;;589.60;1920.00;;;;;;5115019;28;20023;-83
2021/07/07 02:05:11;;;;;;;18.80;14.35;;;589.40;1920.00;;;;;;5113742;27;20038;-82
2021/07/07 02:07:37;;;;;;;21.65;15.32;;;589.40;1920.00;;;;;;5113982;28;20023;-83
2021/07/07 02:10:07;;;;;;;32.03;15.05;;;589.40;1920.00;;;;;;5113796;28;20024;-83
2021/07/07 02:12:33;;;;;;;23.02;15.00;;;589.60;1920.00;;;;;;5113787;28;20063;-83
2021/07/07 02:14:59;;;;;;;32.80;14.30;;;589.50;1920.00;;;;;;5113570;28;20031;-83
2021/07/07 02:17:25;;;;;;;27.13;14.98;;;589.60;1894.40;;;;;;5113525;28;20030;-83
2021/07/07 02:19:50;;;;;;;23.02;13.63;;;589.70;1894.40;;;;;;5113421;28;20023;-83
2021/07/07 02:22:16;;;;;;;30.15;14.30;;;589.70;1894.40;;;;;;5113181;28;20054;-82
2021/07/07 02:24:42;;;;;;;24.65;14.75;;;614.50;1894.40;;;;;;5113549;28;20039;-83
2021/07/07 02:27:08;;;;;;;22.70;15.85;;;614.50;1894.40;;;;;;5113277;28;20477;-84
2021/07/07 02:29:34;;;;;;;25.27;15.43;;;614.60;1894.40;;;;;;5113331;28;20480;-82
2021/07/07 02:32:00;;;;;;;19.85;14.88;;;614.60;1894.40;;;;;;5113187;28;20048;-82
2021/07/07 02:34:26;;;;;;;23.75;15.25;;;614.50;1920.00;;;;;;5114356;28;20027;-83
2021/07/07 02:36:52;;;;;;;20.40;14.18;;;614.40;1971.20;;;;;;5113011;28;20528;-83
2021/07/07 02:39:18;;;;;;;21.23;14.07;;;614.40;1920.00;;;;;;5113774;28;20028;-82
2021/07/07 02:41:43;;;;;;;26.23;15.00;;;614.60;1920.00;;;;;;5112859;28;20511;-82
2021/07/07 02:44:09;;;;;;;23.98;14.88;;;614.60;1920.00;;;;;;5112649;28;20138;-82
2021/07/07 02:46:35;;;;;;;27.02;14.82;;;614.40;1945.60;;;;;;5113145;28;20039;-82
2021/07/07 02:49:01;;;;;;;18.70;14.73;;;589.60;1971.20;;;;;;5112965;28;20110;-83
2021/07/07 02:51:26;;;;;;;26.13;14.52;;;589.50;1945.60;;;;;;5113083;27;20491;-82
2021/07/07 02:53:52;;;;;;;26.38;14.05;;;589.70;1945.60;;;;;;5112763;28;20024;-82
2021/07/07 02:56:18;;;;;;;23.92;14.10;;;589.70;1945.60;;;;;;5112278;28;20035;-82
2021/07/07 02:58:44;;;;;;;22.00;13.43;;;589.60;1971.20;;;;;;5112782;27;20111;-83
2021/07/07 03:01:10;;;;;;;19.85;14.10;;;589.50;1971.20;;;;;;5112911;28;20118;-83
2021/07/07 03:03:36;;;;;;;21.30;14.43;;;589.40;1971.20;;;;;;5111983;28;20085;-83
2021/07/07 03:06:02;;;;;;;25.60;15.05;;;589.30;1996.80;;;;;;5112786;28;20020;-80
2021/07/07 03:08:33;;;;;;;28.88;16.08;;;589.20;2022.40;;;;;;5112041;28;20024;-80
2021/07/07 03:10:59;;;;;;;25.48;15.05;;;589.20;2022.40;;;;;;5112060;28;20024;-80
2021/07/07 03:13:27;;;;;;;32.05;16.58;;;589.50;1996.80;;;;;;5113246;28;20027;-80
2021/07/07 03:15:53;;;;;;;33.28;15.75;;;589.30;2022.40;;;;;;5112000;28;20069;-81
2021/07/07 03:18:20;;;;;;;27.40;16.63;;;589.30;2022.40;;;;;;5112191;28;20031;-81
2021/07/07 03:20:47;;;;;;;18.38;14.48;;;589.60;2022.40;;;;;;5097402;28;20024;-81
2021/07/07 03:23:15;;;;;;;22.27;15.65;;;589.30;2022.40;;;;;;5091567;28;20028;-81
2021/07/07 03:25:41;;;;;;;26.90;15.95;;;589.20;2048.00;;;;;;5091477;28;20085;-80
2021/07/07 03:28:07;;;;;;;20.70;14.13;;;589.20;2048.00;;;;;;5091513;28;20024;-81
2021/07/07 03:30:34;;;;;;;24.55;14.73;;;589.20;2048.00;;;;;;5091502;28;20038;-81
2021/07/07 03:33:00;;;;;;;22.95;13.93;;;589.20;2048.00;;;;;;5091399;28;20023;-80
2021/07/07 03:35:26;;;;;;;23.52;15.68;;;589.20;2048.00;;;;;;5094493;28;20028;-80
2021/07/07 03:37:52;;;;;;;23.30;15.77;;;589.20;2048.00;;;;;;5106980;28;20020;-80
2021/07/07 03:40:19;;;;;;;24.55;14.77;;;589.20;2048.00;;;;;;5105627;28;20028;-81
2021/07/07 03:42:45;;;;;;;22.00;14.45;;;589.20;2048.00;;;;;;5092699;28;20543;-81
2021/07/07 03:45:15;;;;;;;29.05;15.35;;;589.30;2048.00;;;;;;5110408;28;20094;-80
2021/07/07 03:47:41;;;;;;;24.10;15.50;;;589.30;2073.60;;;;;;5112708;28;20043;-81
2021/07/07 03:50:08;;;;;;;25.15;14.18;;;589.30;2073.60;;;;;;5112786;28;20460;-80
2021/07/07 03:52:34;;;;;;;24.10;15.02;;;589.60;2048.00;;;;;;5112616;28;20020;-81
2021/07/07 03:55:01;;;;;;;22.95;15.00;;;589.50;2048.00;;;;;;5111527;28;20061;-81
2021/07/07 03:57:27;;;;;;;24.55;14.23;;;589.50;2048.00;;;;;;5111203;28;20034;-81
2021/07/07 03:59:52;;;;;;;25.05;15.38;;;589.40;2073.60;;;;;;5111509;28;20023;-81
2021/07/07 04:02:18;;;;;;;33.30;16.20;;;589.40;2073.60;;;;;;5111031;28;20024;-81
2021/07/07 04:04:44;;;;;;;27.42;16.63;;;589.50;2073.60;;;;;;5111282;28;20120;-81
2021/07/07 04:07:10;;;;;;;30.63;14.73;;;589.60;2073.60;;;;;;5111319;28;20023;-82
2021/07/07 04:09:36;;;;;;;23.40;16.63;;;589.60;2048.00;;;;;;5115533;27;20027;-82
2021/07/07 04:12:02;;;;;;;20.15;14.00;;;589.70;2048.00;;;;;;5115748;28;20557;-83
2021/07/07 04:14:29;;;;;;;40.53;15.13;;;614.60;2048.00;;;;;;5114033;28;20032;-83
2021/07/07 04:16:56;;;;;;;25.20;14.35;;;614.50;2048.00;;;;;;5115677;28;20039;-82
2021/07/07 04:19:27;;;;;;;26.73;15.02;;;614.60;2048.00;;;;;;5115005;28;20110;-82
2021/07/07 04:21:53;;;;;;;26.42;15.18;;;614.80;2022.40;;;;;;5115263;28;20042;-81
2021/07/07 04:24:20;;;;;;;27.10;14.07;;;614.80;2048.00;;;;;;5115222;28;20080;-80
2021/07/07 04:26:46;;;;;;;27.70;16.70;;;614.90;2048.00;;;;;;5115170;28;20028;-80
2021/07/07 04:29:12;;;;;;;33.03;16.70;;;614.60;2048.00;;;;;;5115435;28;20473;-82
2021/07/07 04:31:39;;;;;;;38.40;16.70;;;614.90;2048.00;;;;;;5116226;28;20035;-82
2021/07/07 04:34:05;;;;;;;38.38;16.13;;;615.00;2022.40;;;;;;5115526;28;20035;-81
2021/07/07 04:36:33;;;;;;;44.78;17.08;;;615.20;2022.40;;;;;;5116281;28;20024;-81
2021/07/07 04:39:00;;;;;;;41.42;17.77;;;615.20;1996.80;;;;;;5114899;28;20073;-82
2021/07/07 04:41:26;;;;;;;28.20;16.20;;;615.30;1920.00;;;;;;5116024;28;20020;-80
2021/07/07 04:43:52;;;;;;;38.35;16.50;;;640.00;1920.00;;;;;;5114576;28;20500;-81
2021/07/07 04:46:18;;;;;;;29.98;16.33;;;640.20;1920.00;;;;;;5115023;28;20073;-80
2021/07/07 04:48:47;;;;;;;24.45;15.40;;;640.30;1894.40;;;;;;5114544;28;20031;-80
2021/07/07 04:51:13;;;;;;;27.17;16.45;;;640.40;1843.20;;;;;;5111276;28;20053;-80
2021/07/07 04:53:40;;;;;;;29.90;15.00;;;640.50;1817.60;;;;;;5115539;28;20032;-80
2021/07/07 04:56:06;;;;;;;28.27;15.40;;;640.70;1817.60;;;;;;5115025;28;20035;-81
2021/07/07 04:58:32;;;;;;;21.45;14.88;;;640.70;1843.20;;;;;;5115940;28;20020;-81
2021/07/07 05:00:58;;;;;;;20.40;14.18;;;640.80;1843.20;;;;;;5116043;28;20058;-81
2021/07/07 05:03:23;;;;;;;28.88;14.07;;;640.90;1817.60;;;;;;5114557;28;20051;-82
2021/07/07 05:05:49;;;;;;;23.98;13.80;;;665.60;1843.20;;;;;;5116337;28;20098;-81
2021/07/07 05:08:15;;;;;;;18.10;13.35;;;665.60;1843.20;;;;;;5115777;28;20483;-80
2021/07/07 05:10:41;;;;;;;23.13;14.30;;;665.70;1843.20;;;;;;5114525;27;20076;-81
2021/07/07 05:13:07;;;;;;;21.02;13.98;;;665.70;1843.20;;;;;;5114069;28;20076;-80
2021/07/07 05:15:33;;;;;;;23.33;15.55;;;665.70;1843.20;;;;;;5113622;28;20512;-80
2021/07/07 05:18:00;;;;;;;43.65;27.38;;;666.00;1843.20;;;;;;5113453;28;20024;-80
2021/07/07 05:20:26;;;;;;;38.13;26.35;;;666.00;1817.60;;;;;;5113581;28;20027;-80
2021/07/07 05:22:52;;;;;;;36.42;22.20;;;666.00;1817.60;;;;;;5114807;27;20027;-80
2021/07/07 05:25:19;;;;;;;33.53;18.13;;;666.20;1817.60;;;;;;5114264;28;20118;-80
2021/07/07 05:27:47;;;;;;;26.55;17.58;;;666.20;1792.00;;;;;;5115460;28;20023;-80
2021/07/07 05:30:15;;;;;;;27.73;19.10;;;666.30;1766.40;;;;;;5114211;28;20035;-80
2021/07/07 05:32:41;;;;;;;22.70;13.07;;;666.30;1766.40;;;;;;5113950;28;20048;-81
2021/07/07 05:35:08;;;;;;;18.98;13.30;;;666.30;1689.60;;;;;;5113851;27;20035;-81
2021/07/07 05:37:35;;;;;;;17.17;12.35;;;666.50;1715.20;;;;;;5114456;28;20500;-81
2021/07/07 05:40:00;;;;;;;23.40;15.07;;;691.20;1715.20;;;;;;5113792;28;20035;-80
2021/07/07 05:42:26;;;;;;;20.10;15.95;;;691.20;1766.40;;;;;;5113395;28;20024;-80
2021/07/07 05:44:52;;;;;;;27.95;14.88;;;691.30;1792.00;;;;;;5113687;28;20047;-79
2021/07/07 05:47:19;;;;;;;25.13;14.40;;;691.30;1740.80;;;;;;5113721;28;20069;-81
2021/07/07 05:49:44;;;;;;;26.45;15.05;;;666.40;1792.00;;;;;;5113870;28;20031;-80
2021/07/07 05:52:11;;;;;;;22.85;15.10;;;691.50;1792.00;;;;;;5113265;27;20019;-79
2021/07/07 05:54:38;;;;;;;23.52;12.00;;;691.60;1766.40;;;;;;5114491;28;20023;-79
2021/07/07 05:57:04;;;;;;;18.20;12.23;;;691.60;1689.60;;;;;;5114518;28;20085;-80
2021/07/07 05:59:29;;;;;;;17.75;11.48;;;691.80;1638.40;;;;;;5113770;28;20055;-80
2021/07/07 06:01:55;;;;;;;21.33;12.00;;;691.90;1638.40;;;;;;5114584;28;20055;-81
2021/07/07 06:04:21;;;;;;;17.83;11.85;;;691.90;1612.80;;;;;;5113089;28;20020;-80
2021/07/07 06:06:47;;;;;;;21.38;11.40;;;692.10;1612.80;;;;;;5113628;28;20031;-79
2021/07/07 06:09:13;;;;;;;30.13;11.57;;;692.10;1587.20;;;;;;5112881;28;20028;-79
2021/07/07 06:11:38;;;;;;;15.00;11.02;;;716.80;1612.80;;;;;;5114235;28;20385;-79
2021/07/07 06:14:04;;;;;;;11.82;10.45;;;716.80;1638.40;;;;;;5114079;28;20069;-80
2021/07/07 06:16:30;;;;;;;18.05;11.65;;;716.90;1612.80;;;;;;5112936;28;20062;-81
2021/07/07 06:18:56;;;;;;;21.58;11.65;;;717.10;1587.20;;;;;;5112710;28;20019;-80
2021/07/07 06:21:22;;;;;;;13.10;10.63;;;717.10;1612.80;;;;;;5094483;28;20496;-80
2021/07/07 06:23:47;;;;;;;17.60;11.32;;;717.20;1612.80;;;;;;5092624;28;20486;-79
2021/07/07 06:26:13;;;;;;;17.73;10.93;;;717.40;1587.20;;;;;;5092437;28;20387;-80
2021/07/07 06:28:39;;;;;;;19.33;11.27;;;717.40;1587.20;;;;;;5092556;28;20039;-80
2021/07/07 06:31:05;;;;;;;18.90;11.52;;;717.50;1587.20;;;;;;5092374;28;20584;-80
2021/07/07 06:33:31;;;;;;;16.35;11.05;;;717.70;1561.60;;;;;;5092306;28;20550;-81
2021/07/07 06:35:56;;;;;;;20.30;9.93;;;742.40;1536.00;;;;;;5092285;28;20081;-80
2021/07/07 06:38:22;;;;;;;12.70;9.95;;;742.40;1536.00;;;;;;5093406;28;20137;-80
2021/07/07 06:40:48;;;;;;;15.57;10.57;;;742.50;1536.00;;;;;;5098333;28;20082;-80
2021/07/07 06:43:14;;;;;;;17.02;11.18;;;742.60;1510.40;;;;;;5113103;28;20036;-81
2021/07/07 06:45:40;;;;;;;17.08;11.65;;;742.80;1510.40;;;;;;5112554;28;20036;-80
2021/07/07 06:48:08;;;;;;;12.73;10.90;;;742.80;1536.00;;;;;;5112552;28;20047;-79
2021/07/07 06:50:34;;;;;;;15.02;10.48;;;742.90;1484.80;;;;;;5112935;28;20029;-80
2021/07/07 06:53:01;;;;;;;16.45;11.43;;;742.90;1536.00;;;;;;5112877;28;20011;-79
2021/07/07 06:55:27;;;;;;;16.63;10.13;;;743.00;1561.60;;;;;;5111581;28;20024;-80
2021/07/07 06:57:53;;;;;;;19.63;10.45;;;743.10;1484.80;;;;;;5111584;28;20111;-80
2021/07/07 07:00:20;;;;;;;15.43;10.98;;;743.30;1484.80;;;;;;5111991;28;20110;-79
2021/07/07 07:02:46;;;;;;;22.63;10.73;;;743.30;1484.80;;;;;;5112685;28;20095;-79
2021/07/07 07:05:14;;;;;;;17.23;10.48;;;768.10;1510.40;;;;;;5113859;28;20030;-80
2021/07/07 07:07:40;;;;;;;19.65;11.18;;;768.10;1484.80;;;;;;5112346;28;20028;-79
2021/07/07 07:10:08;;;;;;;17.08;10.98;;;768.10;1459.20;;;;;;5111303;28;20024;-79
2021/07/07 07:12:37;;;;;;;18.13;11.00;;;768.30;1484.80;;;;;;5111864;28;20042;-80
2021/07/07 07:15:06;;;;;;;13.38;10.80;;;768.30;1459.20;;;;;;5111716;28;20041;-80
2021/07/07 07:17:34;;;;;;;21.65;11.10;;;768.30;1484.80;;;;;;5111943;28;20041;-80
2021/07/07 07:20:00;;;;;;;16.17;9.80;;;768.50;1459.20;;;;;;5102988;28;20492;-80
2021/07/07 07:22:26;;;;;;;15.57;11.05;;;768.70;1484.80;;;;;;5137153;27;20036;-81
2021/07/07 07:24:52;;;;;;;22.95;11.82;;;768.70;1459.20;;;;;;5111138;28;20027;-80
2021/07/07 07:27:18;;;;;;;17.20;10.57;;;768.70;1433.60;;;;;;5112707;28;20028;-81
2021/07/07 07:29:46;;;;;;;11.73;9.15;;;768.90;1459.20;;;;;;5111338;28;20027;-80
2021/07/07 07:32:12;;;;;;;12.77;9.45;;;793.70;1459.20;;;;;;5111571;28;20187;-82
2021/07/07 07:34:38;;;;;;;21.58;9.82;;;793.80;1433.60;;;;;;5111337;28;20028;-81
2021/07/07 07:37:05;;;;;;;13.75;9.57;;;793.90;1408.00;;;;;;5111397;28;20038;-81
2021/07/07 07:39:45;;;;;;;14.70;10.52;;;794.00;1433.60;;;;;;5111014;28;20023;-81
2021/07/07 07:42:15;;;;;;;19.20;9.07;;;794.10;1408.00;;;;;;5135582;27;20465;-81
2021/07/07 07:44:41;;;;;;;12.40;8.65;;;794.20;1382.40;;;;;;5109531;28;20503;-81
2021/07/07 07:47:08;;;;;;;19.63;8.32;;;794.30;1382.40;;;;;;5111141;28;20162;-80
2021/07/07 07:49:34;;;;;;;14.45;7.82;;;794.30;1356.80;;;;;;5108398;28;20055;-80
2021/07/07 07:51:59;;;;;;;12.82;9.07;;;794.30;1331.20;;;;;;5111106;28;20469;-81
2021/07/07 07:54:25;;;;;;;14.07;9.20;;;819.20;1331.20;;;;;;5112172;28;20540;-80
2021/07/07 07:56:51;;;;;;;13.15;7.57;;;819.30;1280.00;;;;;;5110801;28;20110;-81
2021/07/07 07:59:17;;;;;;;12.30;7.68;;;819.50;1280.00;;;;;;5111374;28;20023;-81
2021/07/07 08:01:43;;;;;;;13.35;7.30;;;819.60;1280.00;;;;;;5111355;28;20558;-80
2021/07/07 08:04:08;;;;;;;10.60;7.63;;;819.60;1254.40;;;;;;5110317;28;20032;-81
2021/07/07 08:06:34;;;;;;;11.82;7.43;;;819.70;1254.40;;;;;;5110336;28;20023;-80
2021/07/07 08:09:02;;;;;;;11.13;6.78;;;819.70;1280.00;;;;;;5110006;28;20092;-80
2021/07/07 08:11:28;;;;;;;10.60;7.13;;;819.60;1228.80;;;;;;5111560;28;20016;-80
2021/07/07 08:13:54;;;;;;;14.07;7.45;;;819.70;1228.80;;;;;;5110674;28;20093;-81
2021/07/07 08:16:21;;;;;;;14.60;7.35;;;819.80;1228.80;;;;;;5109497;28;20417;-79
2021/07/07 08:18:47;;;;;;;8.60;7.03;;;820.10;1228.80;;;;;;5090355;28;20073;-81
2021/07/07 08:21:13;;;;;;;9.95;7.07;;;844.90;1280.00;;;;;;5143538;27;20116;-87
2021/07/07 08:23:39;;;;;;;10.95;7.72;;;844.80;1254.40;;;;;;5110862;28;20028;-80
2021/07/07 08:26:05;;;;;;;8.75;6.82;;;844.90;1228.80;;;;;;5110715;28;20543;-80
2021/07/07 08:28:31;;;;;;;11.15;7.50;;;845.10;1254.40;;;;;;5110836;28;20027;-80
2021/07/07 08:30:57;;;;;;;8.23;6.72;;;844.90;1203.20;;;;;;5110315;28;20059;-83
2021/07/07 08:33:22;;;;;;;9.75;6.90;;;844.90;1228.80;;;;;;5110187;28;20024;-80
2021/07/07 08:35:48;;;;;;;9.70;6.78;;;845.00;1203.20;;;;;;5110448;28;20032;-81
2021/07/07 08:38:14;;;;;;;8.50;5.72;;;844.90;1152.00;;;;;;5110113;28;20019;-81
2021/07/07 08:40:40;;;;;;;7.13;5.70;;;844.90;1152.00;;;;;;5110629;28;20099;-81
2021/07/07 08:43:06;;;;;;;9.45;5.90;;;844.90;1126.40;;;;;;5110280;28;20035;-80
2021/07/07 08:45:35;;;;;;;10.85;7.30;;;845.00;1152.00;;;;;;5110072;28;20398;-80
2021/07/07 08:48:01;;;;;;;13.85;6.07;;;845.10;1152.00;;;;;;5110882;28;20115;-81
2021/07/07 08:50:32;;;;;;;11.10;6.45;;;845.20;1152.00;;;;;;5111781;28;20194;-84
2021/07/07 08:53:03;;;;;;;17.30;7.15;;;845.20;1100.80;;;;;;5110925;28;20034;-80
2021/07/07 08:55:29;;;;;;;11.65;6.57;;;845.30;1100.80;;;;;;5113333;28;20096;-80
2021/07/07 08:57:57;;;;;;;8.77;6.18;;;845.00;1126.40;;;;;;5115495;28;20028;-80
2021/07/07 09:00:33;;;;;;;9.70;6.43;;;845.20;1100.80;;;;;;5113823;28;20023;-81
2021/07/07 09:03:15;;;;;;;13.10;7.40;;;845.30;1126.40;;;;;;5093105;28;20138;-79
2021/07/07 09:05:57;;;;;;;8.32;7.22;;;845.40;1075.20;;;;;;5114220;28;20092;-80
2021/07/07 09:08:23;;;;;;;14.35;7.10;;;845.50;1100.80;;;;;;5111934;28;20072;-79
2021/07/07 09:10:48;;;;;;;6.57;5.32;;;845.60;1100.80;;;;;;5112928;28;20024;-80
2021/07/07 09:13:20;;;;;;;12.40;7.63;;;845.70;1024.00;;;;;;5113713;28;20099;-82
2021/07/07 09:15:46;;;;;;;11.00;7.53;;;870.40;1024.00;;;;;;5113616;28;20078;-79
2021/07/07 09:18:33;;;;;;;11.35;7.50;;;870.60;1024.00;;;;;;5114064;28;20059;-79
2021/07/07 09:20:59;;;;;;;15.75;8.40;;;870.50;1024.00;;;;;;5097763;28;20024;-81
2021/07/07 09:23:30;;;;;;;10.85;6.85;;;870.50;1049.60;;;;;;5094870;28;20024;-80
2021/07/07 09:25:56;;;;;;;12.00;7.25;;;870.50;1049.60;;;;;;5136790;27;20408;-81
2021/07/07 09:28:34;;;;;;;11.90;6.95;;;870.80;1100.80;;;;;;5114902;28;20099;-82
2021/07/07 09:31:26;;;;;;;9.73;7.20;;;870.50;1049.60;;;;;;5111341;28;20028;-82
2021/07/07 09:33:51;;;;;;;9.93;7.32;;;870.50;1049.60;;;;;;5112886;28;20029;-80
2021/07/07 09:36:22;;;;;;;13.52;7.82;;;870.70;1024.00;;;;;;5113337;28;20035;-80
2021/07/07 09:38:50;;;;;;;11.75;8.25;;;870.90;998.40;;;;;;5112721;28;20050;-81
2021/07/07 09:41:17;;;;;;;10.63;7.70;;;870.90;972.80;;;;;;5110498;28;20028;-81
2021/07/07 09:43:51;;;;;;;9.75;7.43;;;870.90;998.40;;;;;;5111153;28;20095;-80
2021/07/07 09:46:18;;;;;;;10.70;7.47;;;871.00;972.80;;;;;;5111410;28;20157;-81
2021/07/07 09:48:46;;;;;;;11.90;7.43;;;871.00;972.80;;;;;;5112598;28;20030;-80
2021/07/07 09:51:12;;;;;;;10.85;7.65;;;871.30;998.40;;;;;;5113127;28;20035;-80
2021/07/07 09:53:38;;;;;;;12.35;7.13;;;896.00;998.40;;;;;;5113389;28;20028;-81
2021/07/07 09:56:04;;;;;;;13.65;7.50;;;871.30;972.80;;;;;;5113182;28;20185;-81
2021/07/07 09:58:30;;;;;;;10.75;8.07;;;896.20;972.80;;;;;;5112423;28;20032;-80
2021/07/07 10:00:56;;;;;;;9.85;8.02;;;896.40;998.40;;;;;;5112640;28;20031;-81
2021/07/07 10:03:22;;;;;;;23.27;7.65;;;896.50;921.60;;;;;;5114145;28;20008;-80
2021/07/07 10:05:50;;;;;;;9.88;8.05;;;896.40;972.80;;;;;;5112399;28;20027;-80
2021/07/07 10:08:18;;;;;;;8.15;7.03;;;896.30;947.20;;;;;;5114104;28;20024;-80
2021/07/07 10:10:44;;;;;;;13.50;7.40;;;896.40;947.20;;;;;;5112837;28;20027;-80
2021/07/07 10:13:10;;;;;;;14.75;7.55;;;896.40;947.20;;;;;;5112540;28;20502;-79
2021/07/07 10:15:37;;;;;;;11.52;7.47;;;896.70;947.20;;;;;;5112739;28;20040;-79
2021/07/07 10:18:04;;;;;;;11.00;7.65;;;896.50;921.60;;;;;;5112903;27;20084;-80
2021/07/07 10:20:30;;;;;;;9.82;7.40;;;896.50;947.20;;;;;;5100269;28;20392;-79
2021/07/07 10:22:58;;;;;;;12.80;7.53;;;896.40;947.20;;;;;;5092145;28;20024;-80
2021/07/07 10:25:27;;;;;;;11.82;7.53;;;896.70;921.60;;;;;;5092468;28;20024;-80
2021/07/07 10:28:01;;;;;;;16.85;7.40;;;896.50;921.60;;;;;;5091962;28;20060;-80
2021/07/07 10:30:59;;;;;;;8.77;7.10;;;896.80;921.60;;;;;;5091995;28;20097;-79
2021/07/07 10:33:28;;;;;;;9.68;7.63;;;921.70;972.80;;;;;;5092126;28;20064;-79
2021/07/07 10:36:23;;;;;;;11.63;7.38;;;922.00;921.60;;;;;;5091867;28;20064;-79
2021/07/07 10:39:01;;;;;;;11.30;6.80;;;922.10;896.00;;;;;;5108699;28;20042;-79
2021/07/07 10:41:42;;;;;;;14.45;7.60;;;921.80;896.00;;;;;;5110337;28;20495;-79
2021/07/07 10:44:29;;;;;;;7.78;7.00;;;922.00;921.60;;;;;;5112332;27;20044;-82
2021/07/07 10:47:05;;;;;;;10.55;7.10;;;921.80;896.00;;;;;;5113122;28;20035;-81
2021/07/07 10:49:41;;;;;;;11.63;6.97;;;896.80;896.00;;;;;;5112616;28;20115;-79
2021/07/07 10:52:09;;;;;;;12.15;7.13;;;921.70;921.60;;;;;;5112886;28;20102;-82
2021/07/07 10:54:37;;;;;;;10.43;6.82;;;921.80;921.60;;;;;;5111107;28;20070;-79
2021/07/07 10:57:05;;;;;;;10.68;7.68;;;921.80;921.60;;;;;;5109539;28;20027;-78
2021/07/07 10:59:37;;;;;;;7.50;6.70;;;921.80;870.40;;;;;;5112360;27;20366;-79
2021/07/07 11:02:07;;;;;;;10.90;7.63;;;922.00;870.40;;;;;;5111249;28;20024;-80
2021/07/07 11:04:36;;;;;;;8.05;7.20;;;922.00;870.40;;;;;;5111108;28;20020;-78
2021/07/07 11:07:36;;;;;;;11.32;7.18;;;922.10;870.40;;;;;;5113063;28;20023;-81
2021/07/07 11:10:13;;;;;;;14.18;7.38;;;921.80;870.40;;;;;;5102826;28;20035;-84
2021/07/07 11:12:39;;;;;;;9.68;6.95;;;921.80;896.00;;;;;;5112123;28;20026;-82
2021/07/07 11:15:19;;;;;;;12.00;7.72;;;921.90;921.60;;;;;;5111063;27;20044;-79
2021/07/07 11:17:46;;;;;;;11.30;7.10;;;921.90;896.00;;;;;;5111574;28;20031;-79
2021/07/07 11:20:17;;;;;;;10.25;7.82;;;922.00;896.00;;;;;;5100987;28;20453;-79
2021/07/07 11:22:46;;;;;;;12.13;7.32;;;922.10;896.00;;;;;;5092274;28;20485;-78
2021/07/07 11:25:14;;;;;;;12.07;7.65;;;922.10;870.40;;;;;;5109454;28;20039;-80
2021/07/07 11:27:40;;;;;;;9.25;7.10;;;922.30;870.40;;;;;;5111430;28;20024;-79
2021/07/07 11:30:09;;;;;;;13.90;7.65;;;922.40;896.00;;;;;;5112021;27;20079;-79
2021/07/07 11:32:37;;;;;;;10.73;6.95;;;922.50;896.00;;;;;;5112237;28;20144;-79
2021/07/07 11:35:06;;;;;;;10.70;7.22;;;922.50;896.00;;;;;;5111014;28;20051;-84
2021/07/07 11:37:33;;;;;;;9.68;7.50;;;922.50;896.00;;;;;;5112246;28;20505;-79
2021/07/07 11:40:17;;;;;;;8.50;6.70;;;947.20;896.00;;;;;;5112187;28;20024;-80
2021/07/07 11:43:02;;;;;;;12.07;7.80;;;922.50;870.40;;;;;;5107683;28;20059;-80
2021/07/07 11:45:47;;;;;;;11.97;6.80;;;922.50;896.00;;;;;;5110223;28;20088;-79
2021/07/07 11:50:58;;;;;;;10.95;6.80;;;922.50;870.40;;;;;;5108964;28;20040;-79
2021/07/07 11:53:40;;;;;;;10.10;6.88;;;947.30;870.40;;;;;;5111143;28;20071;-80
2021/07/07 11:56:08;;;;;;;9.95;7.05;;;947.20;870.40;;;;;;5112079;28;20077;-79
2021/07/07 11:58:47;;;;;;;10.00;6.72;;;947.30;870.40;;;;;;5110974;28;20031;-78
2021/07/07 12:01:17;;;;;;;13.05;7.45;;;947.40;870.40;;;;;;5110934;28;20031;-79
2021/07/07 12:04:01;;;;;;;7.63;6.82;;;947.30;870.40;;;;;;5112073;28;20020;-80
2021/07/07 12:06:36;;;;;;;11.80;7.30;;;947.30;870.40;;;;;;5112238;28;20107;-80
2021/07/07 12:09:04;;;;;;;10.05;7.57;;;922.50;870.40;;;;;;5110706;28;20023;-81
2021/07/07 12:11:30;;;;;;;12.13;7.60;;;947.30;870.40;;;;;;5110823;28;20113;-79